Time;durP1;ratioP1;P1;durP2;ratioP2;P2;SDS_P1;SDS_P2;PMS_P1;PMS_P2;Temp;Humidity;BMP_temperature;BMP_pressure;BME280_temperature;BME280_humidity;BME280_pressure;Samples;Min_cycle;Max_cycle;Signal;HPM_P1;HPM_P2
2021/11/10 00:00:52;;;;;;;15.80;6.30;;;;;;;-1.95;70.49;101546.54;105851;1316;138490;-67
2021/11/10 00:03:22;;;;;;;15.70;7.10;;;;;;;-1.98;70.53;101547.27;106183;1320;22478;-67
2021/11/10 00:05:51;;;;;;;17.00;7.60;;;;;;;-1.99;70.44;101550.20;105419;1322;138906;-66
2021/11/10 00:08:19;;;;;;;12.60;8.20;;;;;;;-1.98;70.41;101554.95;106145;1316;22596;-66
2021/11/10 00:10:49;;;;;;;17.00;8.70;;;;;;;-1.99;70.26;101555.90;106027;1323;138838;-66
2021/11/10 00:13:18;;;;;;;20.30;8.60;;;;;;;-2.00;70.34;101557.65;106116;1316;22392;-67
2021/11/10 00:15:48;;;;;;;14.20;8.40;;;;;;;-2.01;70.24;101558.09;106164;1316;23880;-66
2021/11/10 00:18:16;;;;;;;15.00;8.00;;;;;;;-2.04;70.06;101560.83;106002;1316;138300;-66
2021/11/10 00:20:44;;;;;;;16.90;7.80;;;;;;;-2.09;70.05;101571.94;106161;1317;23655;-66
2021/11/10 00:23:13;;;;;;;22.20;8.50;;;;;;;-2.14;70.09;101576.24;106011;1315;139345;-66
2021/11/10 00:25:42;;;;;;;14.10;8.40;;;;;;;-2.20;70.37;101578.88;106190;1316;22467;-66
2021/11/10 00:28:10;;;;;;;11.40;7.30;;;;;;;-2.21;70.56;101581.48;106081;1320;22590;-66
2021/11/10 00:30:38;;;;;;;17.60;7.70;;;;;;;-2.21;70.55;101581.43;105876;1320;138436;-65
2021/11/10 00:33:06;;;;;;;17.10;7.90;;;;;;;-2.20;70.60;101579.92;106170;1316;22487;-65
2021/11/10 00:35:34;;;;;;;14.60;8.40;;;;;;;-2.20;70.48;101587.03;106100;1316;139074;-66
2021/11/10 00:38:04;;;;;;;18.10;9.00;;;;;;;-2.20;70.70;101587.06;105691;1317;22310;-66
2021/11/10 00:40:32;;;;;;;17.60;9.10;;;;;;;-2.21;70.67;101586.23;106171;1317;22467;-68
2021/11/10 00:43:01;;;;;;;18.20;8.50;;;;;;;-2.22;70.81;101589.89;106076;1316;139395;-68
2021/11/10 00:45:30;;;;;;;18.20;9.80;;;;;;;-2.22;70.84;101594.52;106145;1318;22617;-69
2021/11/10 00:47:58;;;;;;;16.00;9.00;;;;;;;-2.22;70.86;101596.29;106006;1317;138813;-68
2021/11/10 00:50:27;;;;;;;17.90;10.30;;;;;;;-2.22;70.89;101599.87;106142;1316;22311;-68
2021/11/10 00:52:55;;;;;;;17.70;10.60;;;;;;;-2.23;70.98;101603.17;106023;1317;138555;-68
2021/11/10 00:55:24;;;;;;;17.10;8.70;;;;;;;-2.23;70.81;101600.13;106087;1316;22463;-68
2021/11/10 00:57:52;;;;;;;17.70;9.60;;;;;;;-2.26;71.02;101592.33;106070;1316;22435;-69
2021/11/10 01:00:22;;;;;;;15.90;8.60;;;;;;;-2.27;71.03;101584.27;106040;1324;138678;-68
2021/11/10 01:02:50;;;;;;;14.40;8.20;;;;;;;-2.28;70.96;101578.10;106182;1316;22389;-69
2021/11/10 01:05:20;;;;;;;13.30;7.40;;;;;;;-2.29;70.96;101584.20;105834;1316;138517;-68
2021/11/10 01:07:51;;;;;;;14.70;7.90;;;;;;;-2.32;70.86;101585.52;105401;1320;22651;-68
2021/11/10 01:10:19;;;;;;;16.40;8.10;;;;;;;-2.30;70.82;101583.40;104954;1323;23631;-69
2021/11/10 01:13:07;;;;;;;14.80;7.10;;;;;;;-2.31;70.83;101583.84;106026;1320;138937;-69
2021/11/10 01:15:35;;;;;;;18.00;6.70;;;;;;;-2.34;70.89;101590.88;106124;1316;22457;-68
2021/11/10 01:18:04;;;;;;;11.90;6.60;;;;;;;-2.36;70.97;101600.32;105936;1316;138396;-69
2021/11/10 01:20:32;;;;;;;16.60;7.30;;;;;;;-2.37;70.91;101604.70;106100;1315;23366;-69
2021/11/10 01:23:00;;;;;;;16.00;8.20;;;;;;;-2.39;71.07;101610.70;105179;1316;443333;-69
2021/11/10 01:25:30;;;;;;;18.50;9.00;;;;;;;-2.42;71.36;101621.61;106087;1319;22516;-69
2021/11/10 01:27:59;;;;;;;19.20;9.20;;;;;;;-2.45;71.33;101627.91;106140;1316;22412;-69
2021/11/10 01:30:28;;;;;;;32.40;10.70;;;;;;;-2.45;71.52;101636.81;105944;1322;139153;-69
2021/11/10 01:32:57;;;;;;;26.00;10.30;;;;;;;-2.49;71.23;101644.08;106081;1317;22670;-70
2021/11/10 01:35:25;;;;;;;31.30;11.20;;;;;;;-2.57;71.36;101628.84;106021;1317;140477;-69
2021/11/10 01:37:54;;;;;;;29.90;11.10;;;;;;;-2.55;71.56;101631.14;106111;1318;22599;-69
2021/11/10 01:40:24;;;;;;;35.30;11.60;;;;;;;-2.52;71.52;101637.74;103977;1316;24134;-69
2021/11/10 01:42:56;;;;;;;46.70;12.70;;;;;;;-2.52;71.80;101629.85;106024;1316;138411;-69
2021/11/10 01:45:24;;;;;;;37.20;12.10;;;;;;;-2.52;71.70;101620.25;105912;1320;22477;-69
2021/11/10 01:47:55;;;;;;;45.50;12.70;;;;;;;-2.52;71.70;101618.67;106087;1316;139574;-68
2021/11/10 01:50:23;;;;;;;32.70;11.50;;;;;;;-2.50;71.80;101627.41;106060;1320;22504;-69
2021/11/10 01:52:52;;;;;;;30.20;11.70;;;;;;;-2.48;71.84;101621.95;106030;1316;139492;-69
2021/11/10 01:55:21;;;;;;;35.70;13.20;;;;;;;-2.46;71.78;101618.02;106170;1316;23160;-69
2021/11/10 01:57:49;;;;;;;31.20;13.10;;;;;;;-2.45;71.76;101615.11;106115;1316;22579;-69
2021/11/10 02:00:29;;;;;;;34.30;14.50;;;;;;;-2.46;71.48;101605.04;105988;1317;138804;-69
2021/11/10 02:03:05;;;;;;;36.40;13.70;;;;;;;-2.50;71.43;101597.69;106137;1316;22457;-69
2021/11/10 02:05:54;;;;;;;34.60;12.70;;;;;;;-2.54;71.27;101603.55;106091;1316;138329;-69
2021/11/10 02:08:53;;;;;;;28.10;12.00;;;;;;;-2.62;71.14;101608.83;105290;1316;22425;-69
2021/11/10 02:11:25;;;;;;;32.20;13.30;;;;;;;-2.66;71.28;101612.83;105829;1320;138660;-68
2021/11/10 02:14:06;;;;;;;25.50;12.10;;;;;;;-2.70;71.31;101616.20;106108;1321;23277;-69
2021/11/10 02:16:38;;;;;;;36.20;12.70;;;;;;;-2.76;71.17;101628.04;105965;1317;22502;-69
2021/11/10 02:19:10;;;;;;;54.10;18.30;;;;;;;-2.79;71.65;101634.39;106035;1316;138912;-69
2021/11/10 02:21:47;;;;;;;54.40;20.10;;;;;;;-2.80;71.92;101625.52;106101;1321;22480;-69
2021/11/10 02:24:27;;;;;;;67.50;22.70;;;;;;;-2.80;72.27;101624.68;106054;1316;138827;-69
2021/11/10 02:26:56;;;;;;;60.80;20.00;;;;;;;-2.76;72.40;101631.30;106077;1317;22660;-69
2021/11/10 02:29:25;;;;;;;37.20;14.70;;;;;;;-2.77;72.67;101634.90;105978;1317;138741;-69
2021/11/10 02:31:54;;;;;;;33.20;12.80;;;;;;;-2.74;72.81;101641.64;106121;1316;22596;-69
2021/11/10 02:34:22;;;;;;;34.40;14.60;;;;;;;-2.74;73.01;101641.45;106195;1317;22424;-69
2021/11/10 02:36:50;;;;;;;44.20;17.10;;;;;;;-2.73;73.39;101642.38;105816;1316;138611;-69
2021/11/10 02:39:21;;;;;;;50.40;19.60;;;;;;;-2.68;73.54;101636.33;105782;1316;22485;-68
2021/11/10 02:41:49;;;;;;;62.30;22.10;;;;;;;-2.62;73.71;101644.57;106073;1316;139225;-68
2021/11/10 02:44:18;;;;;;;55.50;20.10;;;;;;;-2.55;73.87;101646.47;106169;1316;23435;-68
2021/11/10 02:46:48;;;;;;;50.80;18.90;;;;;;;-2.47;73.85;101644.13;106052;1316;22602;-68
2021/11/10 02:49:17;;;;;;;42.30;17.50;;;;;;;-2.40;73.85;101639.27;106039;1317;139381;-69
2021/11/10 02:52:01;;;;;;;71.10;25.20;;;;;;;-2.35;73.78;101639.36;106137;1316;23213;-69
2021/11/10 02:54:31;;;;;;;71.60;23.90;;;;;;;-2.29;73.79;101647.22;106041;1317;138340;-69
2021/11/10 02:57:00;;;;;;;90.20;26.30;;;;;;;-2.25;73.68;101645.34;105215;1316;23278;-69
2021/11/10 02:59:31;;;;;;;114.30;31.70;;;;;;;-2.20;73.66;101645.82;105986;1317;138511;-68
2021/11/10 03:02:01;;;;;;;106.40;31.60;;;;;;;-2.16;73.66;101644.59;106157;1316;22543;-68
2021/11/10 03:04:31;;;;;;;118.80;33.00;;;;;;;-2.12;73.52;101636.42;106054;1316;22521;-68
2021/11/10 03:07:00;;;;;;;67.70;26.20;;;;;;;-2.09;73.50;101639.61;105952;1316;138486;-68
2021/11/10 03:09:35;;;;;;;54.20;21.40;;;;;;;-2.08;73.22;101640.23;106094;1317;23250;-68
2021/11/10 03:12:10;;;;;;;57.10;21.70;;;;;;;-2.09;73.11;101647.55;105991;1323;138387;-71
2021/11/10 03:14:39;;;;;;;63.70;22.70;;;;;;;-2.11;73.00;101656.45;106126;1318;22564;-70
2021/11/10 03:17:12;;;;;;;65.70;24.80;;;;;;;-2.13;72.92;101663.73;106055;1315;138819;-69
2021/11/10 03:19:41;;;;;;;69.20;23.50;;;;;;;-2.15;73.00;101670.98;106175;1317;22522;-71
2021/11/10 03:22:13;;;;;;;56.50;20.90;;;;;;;-2.16;72.92;101677.13;106099;1316;22527;-70
2021/11/10 03:24:45;;;;;;;54.70;20.70;;;;;;;-2.16;73.06;101679.30;105945;1317;139432;-70
2021/11/10 03:27:17;;;;;;;52.60;20.90;;;;;;;-2.18;73.13;101664.13;106127;1318;22472;-70
2021/11/10 03:29:51;;;;;;;46.90;20.90;;;;;;;-2.13;73.16;101664.66;106093;1320;138376;-68
2021/11/10 03:32:22;;;;;;;48.80;21.00;;;;;;;-2.13;73.10;101663.92;106061;1317;22373;-68
2021/11/10 03:34:51;;;;;;;55.70;23.80;;;;;;;-2.13;73.16;101657.69;106119;1317;23083;-69
2021/11/10 03:37:21;;;;;;;54.90;27.70;;;;;;;-2.14;73.05;101660.05;106095;1318;139025;-69
2021/11/10 03:39:50;;;;;;;57.00;25.40;;;;;;;-2.14;73.05;101662.04;104907;1317;22586;-68
2021/11/10 03:42:18;;;;;;;52.30;24.30;;;;;;;-2.15;73.14;101657.64;105895;1317;138418;-69
2021/11/10 03:44:46;;;;;;;43.00;19.80;;;;;;;-2.16;73.03;101654.00;104979;1324;22275;-70
2021/11/10 03:47:14;;;;;;;43.40;20.80;;;;;;;-2.18;73.06;101650.46;106030;1316;141162;-69
2021/11/10 03:49:43;;;;;;;38.10;18.10;;;;;;;-2.21;72.92;101654.99;106101;1318;22458;-69
2021/11/10 03:52:14;;;;;;;35.50;17.80;;;;;;;-2.25;73.00;101656.50;106187;1316;22631;-69
2021/11/10 03:54:43;;;;;;;36.20;16.40;;;;;;;-2.27;72.80;101655.26;105995;1318;139158;-69
2021/11/10 03:57:11;;;;;;;34.30;16.40;;;;;;;-2.29;72.90;101656.46;106067;1318;22415;-69
2021/11/10 03:59:39;;;;;;;34.90;15.80;;;;;;;-2.31;72.77;101655.23;105968;1316;140295;-68
2021/11/10 04:02:09;;;;;;;34.80;16.90;;;;;;;-2.33;72.90;101659.11;106102;1318;22489;-69
2021/11/10 04:04:37;;;;;;;34.40;16.70;;;;;;;-2.36;72.86;101658.50;106102;1316;22659;-68
2021/11/10 04:07:08;;;;;;;39.60;17.80;;;;;;;-2.39;72.68;101660.86;105999;1318;138967;-69
2021/11/10 04:09:36;;;;;;;34.90;16.50;;;;;;;-2.42;72.93;101663.73;106062;1316;22561;-69
2021/11/10 04:12:06;;;;;;;28.40;15.60;;;;;;;-2.44;72.75;101669.63;106005;1316;138427;-69
2021/11/10 04:14:37;;;;;;;40.50;17.50;;;;;;;-2.47;72.78;101674.02;105478;1318;22603;-69
2021/11/10 04:17:26;;;;;;;30.10;15.60;;;;;;;-2.51;72.79;101675.34;105934;1316;140235;-69
2021/11/10 04:19:54;;;;;;;33.60;17.50;;;;;;;-2.55;72.71;101674.02;106070;1318;22440;-70
2021/11/10 04:22:23;;;;;;;33.40;17.00;;;;;;;-2.60;72.52;101673.55;105166;1324;23379;-69
2021/11/10 04:24:52;;;;;;;38.90;17.70;;;;;;;-2.64;72.78;101678.50;105799;1316;139295;-68
2021/11/10 04:27:23;;;;;;;38.90;17.80;;;;;;;-2.70;72.89;101675.27;106084;1318;23191;-68
2021/11/10 04:29:52;;;;;;;39.10;16.10;;;;;;;-2.73;73.00;101673.33;106003;1318;140201;-68
2021/11/10 04:32:23;;;;;;;30.30;14.10;;;;;;;-2.74;73.01;101672.06;106108;1315;22503;-68
2021/11/10 04:34:51;;;;;;;25.00;13.70;;;;;;;-2.77;73.24;101675.13;105782;1318;22473;-68
2021/11/10 04:37:19;;;;;;;31.70;14.00;;;;;;;-2.81;73.29;101669.73;105937;1318;140138;-68
2021/11/10 04:39:47;;;;;;;27.70;12.90;;;;;;;-2.84;73.27;101669.58;106085;1317;22447;-68
2021/11/10 04:42:15;;;;;;;25.90;14.00;;;;;;;-2.87;73.36;101669.62;106065;1316;139951;-69
2021/11/10 04:44:50;;;;;;;27.30;13.30;;;;;;;-2.89;73.42;101672.30;106080;1317;22418;-69
2021/11/10 04:47:18;;;;;;;33.40;13.50;;;;;;;-2.92;73.51;101675.02;105995;1317;138798;-69
2021/11/10 04:49:46;;;;;;;33.90;15.00;;;;;;;-2.93;73.65;101674.89;105646;1318;23819;-69
2021/11/10 04:52:16;;;;;;;29.00;13.80;;;;;;;-2.92;73.81;101667.38;106110;1321;22589;-69
2021/11/10 04:54:44;;;;;;;35.70;14.90;;;;;;;-2.91;73.88;101668.86;105894;1317;138612;-69
2021/11/10 04:57:12;;;;;;;25.50;12.60;;;;;;;-2.88;74.08;101666.67;106098;1317;22432;-69
2021/11/10 04:59:41;;;;;;;31.30;14.60;;;;;;;-2.86;74.15;101665.43;105907;1317;138775;-69
2021/11/10 05:04:41;;;;;;;44.20;19.50;;;;;;;-2.75;74.44;101662.52;106053;1316;22452;-69
2021/11/10 05:07:13;;;;;;;55.90;23.70;;;;;;;-2.73;74.50;101654.15;105887;1318;139009;-68
2021/11/10 05:09:42;;;;;;;62.70;24.60;;;;;;;-2.68;74.38;101666.16;106092;1318;23095;-67
2021/11/10 05:12:10;;;;;;;53.30;23.70;;;;;;;-2.66;74.46;101673.71;105865;1318;139415;-69
2021/11/10 05:14:45;;;;;;;60.70;24.80;;;;;;;-2.66;74.47;101664.59;106043;1317;22494;-69
2021/11/10 05:17:13;;;;;;;55.30;21.80;;;;;;;-2.63;74.49;101665.98;105883;1320;138763;-69
2021/11/10 05:19:43;;;;;;;49.40;21.00;;;;;;;-2.61;74.48;101674.55;106138;1317;22587;-69
2021/11/10 05:22:32;;;;;;;27.80;14.80;;;;;;;-2.60;74.16;101687.85;106010;1318;22456;-68
2021/11/10 05:26:09;;;;;;;38.30;17.70;;;;;;;-2.56;74.28;101687.48;99460;1351;545745;-68
2021/11/10 05:28:37;;;;;;;29.80;15.60;;;;;;;-2.56;74.12;101696.76;101593;1326;22615;-69
2021/11/10 05:31:05;;;;;;;30.80;14.00;;;;;;;-2.56;73.95;101708.78;105198;1329;137844;-68
2021/11/10 05:33:33;;;;;;;39.20;17.10;;;;;;;-2.57;73.89;101712.95;104800;1332;22450;-68
2021/11/10 05:36:01;;;;;;;39.00;19.10;;;;;;;-2.57;73.94;101715.33;105214;1330;139841;-68
2021/11/10 05:38:29;;;;;;;35.70;16.60;;;;;;;-2.57;73.89;101720.82;105300;1330;22592;-68
2021/11/10 05:40:57;;;;;;;29.00;15.00;;;;;;;-2.58;73.91;101725.14;106353;1312;137766;-65
2021/11/10 05:43:28;;;;;;;32.30;15.00;;;;;;;-2.59;73.95;101718.17;106497;1319;22453;-67
2021/11/10 05:45:56;;;;;;;52.00;20.90;;;;;;;-2.61;74.02;101718.63;106373;1316;22468;-68
2021/11/10 05:48:24;;;;;;;86.40;28.50;;;;;;;-2.61;74.26;101718.51;106405;1313;137878;-68
2021/11/10 05:50:52;;;;;;;76.80;30.40;;;;;;;-2.60;74.61;101722.31;106537;1313;22427;-68
2021/11/10 05:53:21;;;;;;;67.90;28.70;;;;;;;-2.54;74.69;101731.40;105488;1319;140020;-68
2021/11/10 05:55:52;;;;;;;64.20;25.90;;;;;;;-2.45;74.83;101726.85;106411;1313;22611;-68
2021/11/10 05:58:21;;;;;;;70.80;28.20;;;;;;;-2.36;74.95;101719.92;106484;1313;22858;-68
2021/11/10 06:00:52;;;;;;;60.60;27.80;;;;;;;-2.26;75.17;101719.77;106371;1313;139431;-68
2021/11/10 06:03:20;;;;;;;60.30;27.10;;;;;;;-2.15;75.21;101726.06;106488;1313;22614;-69
2021/11/10 06:05:54;;;;;;;47.00;21.40;;;;;;;-2.05;75.33;101731.47;106418;1313;138135;-68
2021/11/10 06:08:25;;;;;;;;;;;;;;;-1.95;75.02;101728.52;106486;1313;22488;-69
2021/11/10 06:11:08;;;;;;;61.30;20.90;;;;;;;-1.86;75.07;101728.69;106395;1318;124940;-69
2021/11/10 06:13:36;;;;;;;51.80;19.80;;;;;;;-1.77;74.84;101726.75;106557;1313;22511;-69
2021/11/10 06:16:05;;;;;;;69.60;23.70;;;;;;;-1.67;74.91;101720.89;106466;1313;22374;-69
2021/11/10 06:18:34;;;;;;;90.50;32.20;;;;;;;-1.57;74.53;101723.30;105929;1313;138834;-69
2021/11/10 06:21:02;;;;;;;73.00;30.10;;;;;;;-1.49;74.42;101728.34;106305;1316;22440;-69
2021/11/10 06:23:31;;;;;;;51.60;26.00;;;;;;;-1.41;74.13;101726.23;106319;1313;139109;-70
2021/11/10 06:25:59;;;;;;;53.40;26.60;;;;;;;-1.34;73.91;101727.78;106295;1316;23344;-69
2021/11/10 06:28:27;;;;;;;52.90;25.00;;;;;;;-1.27;73.79;101725.02;106440;1313;22351;-69
2021/11/10 06:30:56;;;;;;;53.80;24.30;;;;;;;-1.21;73.57;101721.72;106203;1316;138725;-69
2021/11/10 06:33:32;;;;;;;50.30;22.50;;;;;;;-1.14;73.32;101725.37;106489;1313;22489;-69
2021/11/10 06:36:01;;;;;;;45.20;20.40;;;;;;;-1.09;72.95;101720.27;106207;1316;137956;-69
2021/11/10 06:38:29;;;;;;;37.30;17.90;;;;;;;-1.02;72.84;101716.58;106092;1313;22500;-69
2021/11/10 06:40:58;;;;;;;42.50;20.70;;;;;;;-0.95;72.71;101716.14;106360;1313;139071;-67
2021/11/10 06:43:28;;;;;;;38.10;18.90;;;;;;;-0.88;72.24;101721.11;106499;1317;23219;-69
2021/11/10 06:45:56;;;;;;;34.10;19.10;;;;;;;-0.82;72.16;101720.88;106077;1314;22454;-69
2021/11/10 06:48:24;;;;;;;43.90;21.60;;;;;;;-0.77;72.08;101721.14;106328;1313;140764;-69
2021/11/10 06:50:52;;;;;;;60.30;24.40;;;;;;;-0.69;72.12;101724.42;106434;1313;22290;-69
2021/11/10 06:53:21;;;;;;;53.70;23.90;;;;;;;-0.64;71.87;101727.17;106246;1316;139783;-68
2021/11/10 06:55:49;;;;;;;47.00;21.30;;;;;;;-0.63;71.56;101728.17;106451;1313;22507;-68
2021/11/10 06:58:17;;;;;;;39.30;18.90;;;;;;;-0.62;71.30;101725.25;106427;1313;22462;-69
2021/11/10 07:00:45;;;;;;;59.90;19.80;;;;;;;-0.60;71.33;101725.61;106330;1313;139802;-69
2021/11/10 07:03:23;;;;;;;40.40;18.90;;;;;;;-0.56;71.54;101724.54;106486;1313;22621;-68
2021/11/10 07:05:51;;;;;;;38.20;16.60;;;;;;;-0.52;71.41;101720.25;106341;1313;138612;-68
2021/11/10 07:08:19;;;;;;;40.40;20.20;;;;;;;-0.49;71.48;101718.73;106425;1313;22500;-68
2021/11/10 07:10:48;;;;;;;36.30;18.10;;;;;;;-0.47;71.23;101713.90;106467;1316;23052;-68
2021/11/10 07:13:16;;;;;;;39.90;17.50;;;;;;;-0.44;71.20;101712.05;106343;1313;138211;-69
2021/11/10 07:15:44;;;;;;;33.80;16.90;;;;;;;-0.42;71.47;101710.27;106476;1313;23159;-69
2021/11/10 07:18:12;;;;;;;36.60;16.60;;;;;;;-0.40;71.29;101704.59;105859;1317;138870;-69
2021/11/10 07:20:40;;;;;;;39.10;16.00;;;;;;;-0.36;71.04;101704.58;106429;1313;22450;-70
2021/11/10 07:23:08;;;;;;;45.30;18.30;;;;;;;-0.34;71.45;101701.89;105968;1316;138969;-70
2021/11/10 07:25:37;;;;;;;36.20;17.10;;;;;;;-0.27;71.50;101701.80;103713;1313;22646;-69
2021/11/10 07:28:05;;;;;;;43.50;19.40;;;;;;;-0.20;71.30;101707.67;105481;1319;23094;-69
2021/11/10 07:30:34;;;;;;;40.70;20.50;;;;;;;-0.15;71.29;101703.42;106316;1316;138370;-69
2021/11/10 07:33:02;;;;;;;38.00;18.90;;;;;;;-0.08;71.11;101704.79;106465;1313;22452;-69
2021/11/10 07:35:30;;;;;;;41.70;18.60;;;;;;;-0.06;70.49;101700.68;106329;1313;139056;-70
2021/11/10 07:37:59;;;;;;;36.40;19.30;;;;;;;-0.06;70.28;101697.31;106442;1318;23143;-70
2021/11/10 07:40:27;;;;;;;40.20;19.40;;;;;;;-0.03;70.37;101681.76;104163;1316;25248;-69
2021/11/10 07:42:57;;;;;;;34.50;17.70;;;;;;;0.04;70.12;101671.24;106056;1316;140409;-70
2021/11/10 07:45:36;;;;;;;33.10;16.00;;;;;;;0.11;70.21;101670.43;106396;1313;22486;-70
2021/11/10 07:48:12;;;;;;;45.90;22.50;;;;;;;0.20;69.78;101673.15;106301;1316;138072;-70
2021/11/10 07:50:40;;;;;;;47.10;23.10;;;;;;;0.30;69.31;101677.23;106175;1313;22391;-70
2021/11/10 07:53:08;;;;;;;41.80;20.20;;;;;;;0.36;69.13;101679.95;106138;1316;138324;-71
2021/11/10 07:55:37;;;;;;;38.70;17.90;;;;;;;0.41;69.25;101682.34;106421;1313;23645;-70
2021/11/10 07:58:05;;;;;;;74.40;33.00;;;;;;;0.52;68.95;101684.35;106379;1313;23205;-70
2021/11/10 08:00:37;;;;;;;51.30;23.90;;;;;;;0.60;68.80;101681.94;106352;1316;137993;-70
2021/11/10 08:03:05;;;;;;;35.90;17.70;;;;;;;0.66;68.76;101687.89;106336;1316;22578;-70
2021/11/10 08:05:34;;;;;;;31.70;14.90;;;;;;;0.77;68.90;101692.42;106302;1316;140068;-70
2021/11/10 08:08:02;;;;;;;32.60;14.80;;;;;;;0.83;68.43;101699.91;106451;1313;22593;-70
2021/11/10 08:11:01;;;;;;;41.80;16.10;;;;;;;0.92;67.30;101705.27;106360;1316;138243;-69
2021/11/10 08:13:29;;;;;;;39.80;17.00;;;;;;;0.97;67.21;101703.08;106392;1313;22540;-70
2021/11/10 08:15:58;;;;;;;37.50;15.30;;;;;;;1.02;67.31;101705.41;106421;1318;22628;-70
2021/11/10 08:18:27;;;;;;;35.40;15.60;;;;;;;1.09;66.93;101699.45;102973;1316;138579;-69
2021/11/10 08:20:56;;;;;;;38.70;15.00;;;;;;;1.13;66.69;101702.11;106393;1316;22683;-70
2021/11/10 08:23:26;;;;;;;31.80;15.50;;;;;;;1.19;66.81;101707.79;106327;1317;139272;-70
2021/11/10 08:25:56;;;;;;;30.40;15.10;;;;;;;1.27;66.13;101709.34;106449;1313;22486;-70
2021/11/10 08:28:25;;;;;;;27.90;14.30;;;;;;;1.27;64.77;101708.13;106387;1313;22457;-70
2021/11/10 08:30:53;;;;;;;26.20;13.70;;;;;;;1.25;64.33;101708.23;106291;1316;138282;-70
2021/11/10 08:33:27;;;;;;;29.30;14.60;;;;;;;1.23;64.49;101709.73;106446;1316;22457;-70
2021/11/10 08:35:56;;;;;;;31.40;14.30;;;;;;;1.26;64.55;101710.53;106304;1313;138202;-70
2021/11/10 08:38:26;;;;;;;35.00;15.40;;;;;;;1.33;64.85;101711.48;106411;1313;22526;-70
2021/11/10 08:40:54;;;;;;;41.90;18.50;;;;;;;1.40;64.72;101709.07;103363;1316;24301;-66
2021/11/10 08:43:23;;;;;;;38.30;19.10;;;;;;;1.48;64.40;101706.63;106170;1315;137856;-66
2021/11/10 08:45:54;;;;;;;46.90;20.80;;;;;;;1.56;64.27;101705.38;106442;1313;22652;-66
2021/11/10 08:48:23;;;;;;;41.20;18.10;;;;;;;1.63;64.00;101706.77;106313;1313;138156;-66
2021/11/10 08:50:51;;;;;;;39.10;17.10;;;;;;;1.70;63.41;101708.13;106329;1313;23302;-71
2021/11/10 08:53:22;;;;;;;37.30;17.30;;;;;;;1.76;62.94;101701.80;106277;1313;139051;-71
2021/11/10 08:55:56;;;;;;;29.60;15.70;;;;;;;1.79;62.12;101690.05;106406;1315;23521;-71
2021/11/10 08:58:25;;;;;;;38.60;17.80;;;;;;;1.82;61.81;101688.75;106356;1313;23180;-71
2021/11/10 09:00:53;;;;;;;33.60;16.70;;;;;;;1.83;61.84;101691.23;106297;1316;138995;-71
2021/11/10 09:03:23;;;;;;;36.40;15.40;;;;;;;1.88;62.15;101689.88;106367;1313;23234;-71
2021/11/10 09:05:52;;;;;;;32.10;15.00;;;;;;;1.92;61.22;101680.15;106109;1316;138182;-71
2021/11/10 09:08:30;;;;;;;34.30;15.60;;;;;;;1.95;61.06;101674.12;106307;1316;22680;-71
2021/11/10 09:10:59;;;;;;;26.60;11.70;;;;;;;2.00;60.56;101673.87;106265;1313;137507;-73
2021/11/10 09:13:27;;;;;;;31.90;14.80;;;;;;;2.05;60.83;101673.18;106375;1313;23366;-72
2021/11/10 09:15:56;;;;;;;30.50;13.90;;;;;;;2.12;60.84;101678.25;106401;1313;22704;-73
2021/11/10 09:18:24;;;;;;;31.70;13.50;;;;;;;2.17;59.74;101677.15;106293;1313;137718;-73
2021/11/10 09:20:53;;;;;;;21.60;12.80;;;;;;;2.20;59.32;101679.98;106379;1316;23370;-73
2021/11/10 09:23:21;;;;;;;27.80;13.10;;;;;;;2.20;58.69;101681.19;106251;1316;138409;-72
2021/11/10 09:25:49;;;;;;;23.60;11.10;;;;;;;2.22;58.71;101679.34;106390;1314;22578;-72
2021/11/10 09:28:21;;;;;;;24.80;10.70;;;;;;;2.27;58.82;101681.76;106288;1309;23319;-72
2021/11/10 09:30:51;;;;;;;26.60;11.90;;;;;;;2.33;58.62;101672.73;106285;1313;137521;-72
2021/11/10 09:33:19;;;;;;;17.40;9.50;;;;;;;2.40;58.38;101669.15;106388;1313;22522;-72
2021/11/10 09:35:49;;;;;;;19.30;9.00;;;;;;;2.48;57.88;101668.84;106288;1316;139362;-72
2021/11/10 09:38:18;;;;;;;18.30;8.20;;;;;;;2.59;57.39;101670.30;106383;1320;22396;-72
2021/11/10 09:40:46;;;;;;;13.70;7.00;;;;;;;2.67;56.48;101670.89;106415;1313;22588;-67
2021/11/10 09:43:15;;;;;;;19.00;9.00;;;;;;;2.74;56.77;101669.70;103742;1316;137128;-68
2021/11/10 09:45:45;;;;;;;19.10;8.80;;;;;;;2.77;56.71;101671.61;106444;1313;23331;-67
2021/11/10 09:48:14;;;;;;;18.80;8.80;;;;;;;2.83;56.91;101674.54;106277;1316;138645;-67
2021/11/10 09:50:46;;;;;;;17.50;9.70;;;;;;;2.88;56.93;101673.77;106454;1313;22592;-67
2021/11/10 09:53:15;;;;;;;19.60;9.40;;;;;;;2.95;57.23;101672.23;106332;1313;137863;-67
2021/11/10 09:55:43;;;;;;;15.50;8.30;;;;;;;3.01;56.72;101676.95;106373;1313;22445;-67
2021/11/10 09:58:11;;;;;;;19.20;8.00;;;;;;;3.08;56.15;101679.98;106423;1313;22612;-67
2021/11/10 10:00:45;;;;;;;18.60;7.70;;;;;;;3.14;55.37;101678.80;106096;1313;137712;-67
2021/11/10 10:03:13;;;;;;;19.60;7.50;;;;;;;3.20;54.99;101669.77;106422;1313;22458;-67
2021/11/10 10:05:44;;;;;;;15.10;8.60;;;;;;;3.28;54.21;101673.11;106338;1313;138124;-67
2021/11/10 10:08:22;;;;;;;16.80;8.40;;;;;;;3.36;53.64;101668.14;106427;1313;23693;-71
2021/11/10 10:10:50;;;;;;;20.30;10.00;;;;;;;3.44;53.22;101667.35;106448;1313;22482;-68
2021/11/10 10:13:18;;;;;;;21.90;9.60;;;;;;;3.51;52.74;101667.11;106335;1313;137401;-68
2021/11/10 10:15:48;;;;;;;19.80;9.80;;;;;;;3.59;52.73;101667.20;106455;1313;22478;-68
2021/11/10 10:18:25;;;;;;;21.40;10.80;;;;;;;3.65;52.78;101665.95;106338;1317;137239;-66
2021/11/10 10:20:59;;;;;;;23.40;11.00;;;;;;;3.71;52.71;101666.23;106428;1313;23184;-68
2021/11/10 10:23:29;;;;;;;16.90;10.20;;;;;;;3.76;52.43;101657.41;106309;1313;137530;-68
2021/11/10 10:26:06;;;;;;;22.50;10.90;;;;;;;3.81;52.40;101650.59;106441;1313;22545;-68
2021/11/10 10:28:36;;;;;;;17.80;10.30;;;;;;;3.87;52.40;101643.17;106295;1316;22461;-68
2021/11/10 10:31:06;;;;;;;15.80;8.50;;;;;;;3.93;51.92;101639.34;106229;1317;137521;-68
2021/11/10 10:33:56;;;;;;;14.70;7.90;;;;;;;3.98;51.81;101631.05;106436;1316;22314;-68
2021/11/10 10:36:33;;;;;;;19.60;9.50;;;;;;;4.05;52.06;101642.15;106349;1313;138485;-67
2021/11/10 10:39:11;;;;;;;;;;;;;;;4.11;51.80;101648.85;106464;1318;23266;-67
2021/11/10 10:41:46;;;;;;;18.30;9.20;;;;;;;4.15;50.98;101645.57;106328;1313;123961;-68
2021/11/10 10:44:16;;;;;;;15.20;8.80;;;;;;;4.19;50.75;101638.10;106450;1316;22746;-67
2021/11/10 10:46:46;;;;;;;21.10;9.20;;;;;;;4.20;50.83;101628.42;106437;1313;23623;-67
2021/11/10 10:49:30;;;;;;;20.40;7.90;;;;;;;4.22;50.75;101630.02;105617;1317;137964;-67
2021/11/10 10:52:12;;;;;;;12.90;7.30;;;;;;;4.23;50.37;101628.28;106427;1313;22427;-67
2021/11/10 10:54:41;;;;;;;14.40;6.90;;;;;;;4.24;50.42;101627.27;106328;1313;137429;-67
2021/11/10 10:57:10;;;;;;;16.40;7.30;;;;;;;4.24;50.14;101631.02;106403;1313;22484;-67
2021/11/10 10:59:38;;;;;;;16.40;7.60;;;;;;;4.25;49.90;101630.41;106295;1313;139680;-67
2021/11/10 11:02:07;;;;;;;18.80;9.10;;;;;;;4.25;49.59;101629.67;106435;1313;22441;-68
2021/11/10 11:04:42;;;;;;;21.10;9.60;;;;;;;4.26;50.04;101628.18;106455;1313;22444;-67
2021/11/10 11:07:29;;;;;;;16.50;7.80;;;;;;;4.29;49.99;101622.83;105512;1313;137482;-67
2021/11/10 11:10:17;;;;;;;14.70;8.50;;;;;;;4.32;49.90;101616.16;106477;1313;22270;-68
2021/11/10 11:13:05;;;;;;;24.90;11.70;;;;;;;4.35;50.02;101615.67;105135;1316;137383;-68
2021/11/10 11:15:37;;;;;;;19.10;10.20;;;;;;;4.35;49.72;101615.64;106244;1313;22451;-68
2021/11/10 11:18:05;;;;;;;22.20;9.40;;;;;;;4.34;49.68;101620.13;106278;1316;137648;-67
2021/11/10 11:20:35;;;;;;;15.60;8.60;;;;;;;4.33;49.64;101619.83;106417;1313;22492;-67
2021/11/10 11:23:04;;;;;;;19.80;8.20;;;;;;;4.34;48.73;101620.70;106386;1313;137587;-67